createdAt,value
2023-12-05T00:00:34.444Z,97682.72
2023-12-05T00:03:01.397Z,97686.00
2023-12-05T00:05:28.298Z,97681.19
2023-12-05T00:07:55.058Z,97680.16
2023-12-05T00:10:22.417Z,97676.91
2023-12-05T00:12:49.238Z,97683.38
2023-12-05T00:15:15.991Z,97651.28
2023-12-05T00:17:42.846Z,97676.53
2023-12-05T00:20:10.159Z,97673.91
2023-12-05T00:22:37.500Z,97668.63
2023-12-05T00:25:05.274Z,97632.94
2023-12-05T00:27:31.994Z,97661.31
2023-12-05T00:29:58.680Z,97656.03
2023-12-05T00:32:26.197Z,97656.69
2023-12-05T00:34:53.667Z,97650.56
2023-12-05T00:37:21.012Z,97644.97
2023-12-05T00:39:48.592Z,97648.75
2023-12-05T00:42:15.308Z,97650.56
2023-12-05T00:44:41.944Z,97632.41
2023-12-05T00:47:09.579Z,97635.69
2023-12-05T00:49:36.457Z,97636.34
2023-12-05T00:52:03.693Z,97625.56
2023-12-05T00:54:31.195Z,97621.91
2023-12-05T00:56:57.993Z,97614.28
2023-12-05T00:59:24.744Z,97595.47
2023-12-05T01:01:51.701Z,97598.88
2023-12-05T01:04:19.181Z,97588.09
2023-12-05T01:06:46.074Z,97569.22
2023-12-05T01:09:13.651Z,97576.06
2023-12-05T01:11:40.713Z,97569.59
2023-12-05T01:14:07.355Z,97554.72
2023-12-05T01:16:35.056Z,97553.25
2023-12-05T01:19:02.244Z,97550.63
2023-12-05T01:21:29.179Z,97515.28
2023-12-05T01:23:55.862Z,97529.91
2023-12-05T01:26:22.497Z,97529.91
2023-12-05T01:28:49.141Z,97521.97
2023-12-05T01:31:16.208Z,97515.06
2023-12-05T01:33:42.959Z,97511.25
2023-12-05T01:36:11.679Z,97501.19
2023-12-05T01:38:38.614Z,97496.56
2023-12-05T01:41:05.427Z,97499.19
2023-12-05T01:43:32.190Z,97490.25
2023-12-05T01:45:59.729Z,97497.19
2023-12-05T01:48:28.205Z,97494.56
2023-12-05T01:50:56.327Z,97475.78
2023-12-05T01:53:24.032Z,97476.06
2023-12-05T01:55:52.315Z,97457.63
2023-12-05T01:58:20.036Z,97470.31
2023-12-05T02:00:47.396Z,97454.75
2023-12-05T02:03:14.703Z,97467.59
2023-12-05T02:05:41.888Z,97462.03
2023-12-05T02:08:13.122Z,97470.59
2023-12-05T02:10:40.818Z,97467.31
2023-12-05T02:13:07.577Z,97473.06
2023-12-05T02:15:35.132Z,97465.06
2023-12-05T02:18:15.936Z,97464.06
2023-12-05T02:20:59.201Z,97457.13
2023-12-05T02:23:47.416Z,97459.13
2023-12-05T02:26:36.603Z,97460.75
2023-12-05T02:29:04.151Z,97464.22
2023-12-05T02:31:31.356Z,97460.16
2023-12-05T02:33:58.451Z,97468.31
2023-12-05T02:36:35.837Z,97476.25
2023-12-05T02:39:15.377Z,97476.91
2023-12-05T02:41:46.536Z,97470.97
2023-12-05T02:44:19.616Z,97467.50
2023-12-05T02:46:48.685Z,97477.72
2023-12-05T02:49:15.532Z,97470.34
2023-12-05T02:51:43.366Z,97484.63
2023-12-05T02:54:10.110Z,97476.72
2023-12-05T02:56:37.356Z,97474.88
2023-12-05T02:59:05.245Z,97474.88
2023-12-05T03:01:38.941Z,97465.56
2023-12-05T03:04:06.468Z,97464.94
2023-12-05T03:06:33.424Z,97474.31
2023-12-05T03:09:03.873Z,97477.16
2023-12-05T03:11:32.072Z,97476.06
2023-12-05T03:14:00.097Z,97464.63
2023-12-05T03:16:27.763Z,97467.72
2023-12-05T03:18:56.361Z,97453.59
2023-12-05T03:21:23.657Z,97462.44
2023-12-05T03:23:50.489Z,97465.91
2023-12-05T03:26:19.048Z,97472.03
2023-12-05T03:28:45.725Z,97460.00
2023-12-05T03:31:12.546Z,97455.25
2023-12-05T03:33:39.815Z,97463.28
2023-12-05T03:36:06.934Z,97445.50
2023-12-05T03:38:33.623Z,97445.13
2023-12-05T03:41:00.417Z,97430.91
2023-12-05T03:43:27.098Z,97407.22
2023-12-05T03:45:53.773Z,97426.63
2023-12-05T03:48:21.111Z,97417.81
2023-12-05T03:50:47.857Z,97433.75
2023-12-05T03:53:14.531Z,97420.31
2023-12-05T03:55:42.132Z,97408.72
2023-12-05T03:58:08.823Z,97414.66
2023-12-05T04:00:35.529Z,97418.13
2023-12-05T04:03:03.304Z,97422.38
2023-12-05T04:05:30.121Z,97411.66
2023-12-05T04:07:56.907Z,97405.72
2023-12-05T04:10:27.299Z,97400.78
2023-12-05T04:12:54.672Z,97402.88
2023-12-05T04:15:21.995Z,97416.94
2023-12-05T04:17:48.945Z,97422.84
2023-12-05T04:20:16.079Z,97447.81
2023-12-05T04:22:42.885Z,97481.88
2023-12-05T04:25:11.491Z,97484.84
2023-12-05T04:27:38.184Z,97492.84
2023-12-05T04:30:06.488Z,97509.56
2023-12-05T04:32:33.989Z,97509.56
2023-12-05T04:35:00.856Z,97485.56
2023-12-05T04:37:27.541Z,97470.72
2023-12-05T04:39:54.941Z,97485.44
2023-12-05T04:42:22.232Z,97480.97
2023-12-05T04:44:48.948Z,97480.44
2023-12-05T04:47:16.538Z,97471.13
2023-12-05T04:49:43.374Z,97475.66
2023-12-05T04:52:10.047Z,97484.84
2023-12-05T04:54:36.876Z,97465.97
2023-12-05T04:57:03.827Z,97462.34
2023-12-05T04:59:30.478Z,97459.41
2023-12-05T05:01:57.994Z,97447.28
2023-12-05T05:04:24.807Z,97444.06
2023-12-05T05:06:51.615Z,97443.31
2023-12-05T05:09:18.466Z,97442.91
2023-12-05T05:11:45.112Z,97431.34
2023-12-05T05:14:11.971Z,97418.28
2023-12-05T05:16:45.226Z,97408.16
2023-12-05T05:19:12.077Z,97416.53
2023-12-05T05:21:38.852Z,97411.44
2023-12-05T05:24:06.433Z,97433.84
2023-12-05T05:26:33.380Z,97451.72
2023-12-05T05:29:00.033Z,97445.09
2023-12-05T05:31:27.071Z,97394.38
2023-12-05T05:33:53.988Z,97416.53
2023-12-05T05:36:20.797Z,97436.06
2023-12-05T05:38:54.245Z,97403.63
2023-12-05T05:41:20.892Z,97428.38
2023-12-05T05:43:47.687Z,97427.16
2023-12-05T05:46:22.801Z,97420.44
2023-12-05T05:48:49.494Z,97433.72
2023-12-05T05:51:16.967Z,97441.03
2023-12-05T05:53:50.226Z,97460.44
2023-12-05T05:56:16.882Z,97460.44
2023-12-05T05:58:44.099Z,97461.88
2023-12-05T06:01:14.552Z,97448.09
2023-12-05T06:03:44.305Z,97461.72
2023-12-05T06:06:11.199Z,97452.38
2023-12-05T06:08:38.122Z,97459.72
2023-12-05T06:11:05.344Z,97461.56
2023-12-05T06:13:32.172Z,97463.56
2023-12-05T06:15:59.201Z,97461.13
2023-12-05T06:18:25.969Z,97458.25
2023-12-05T06:20:53.892Z,97464.00
2023-12-05T06:23:21.138Z,97465.25
2023-12-05T06:25:47.834Z,97459.78
2023-12-05T06:28:15.417Z,97451.41
2023-12-05T06:30:42.951Z,97460.00
2023-12-05T06:33:09.654Z,97441.31
2023-12-05T06:35:36.420Z,97448.84
2023-12-05T06:38:03.628Z,97450.94
2023-12-05T06:40:30.446Z,97449.09
2023-12-05T06:42:57.249Z,97436.44
2023-12-05T06:45:25.027Z,97437.50
2023-12-05T06:47:51.821Z,97447.94
2023-12-05T06:50:19.450Z,97437.78
2023-12-05T06:52:46.309Z,97440.03
2023-12-05T06:55:13.064Z,97434.56
2023-12-05T06:57:39.903Z,97417.41
2023-12-05T07:00:08.005Z,97439.50
2023-12-05T07:02:34.676Z,97433.81
2023-12-05T07:05:06.216Z,97441.97
2023-12-05T07:07:33.302Z,97443.47
2023-12-05T07:09:59.972Z,97440.22
2023-12-05T07:12:27.356Z,97433.53
2023-12-05T07:14:54.236Z,97423.56
2023-12-05T07:17:22.343Z,97431.97
2023-12-05T07:19:49.043Z,97423.59
2023-12-05T07:22:15.993Z,97421.19
2023-12-05T07:24:43.381Z,97419.56
2023-12-05T07:27:10.888Z,97427.13
2023-12-05T07:29:38.238Z,97421.84
2023-12-05T07:32:04.950Z,97424.75
2023-12-05T07:34:32.718Z,97407.63
2023-12-05T07:37:00.012Z,97411.31
2023-12-05T07:39:27.717Z,97418.47
2023-12-05T07:41:55.288Z,97418.69
2023-12-05T07:44:22.538Z,97392.75
2023-12-05T07:46:49.195Z,97419.31
2023-12-05T07:49:16.896Z,97421.16
2023-12-05T07:51:43.767Z,97420.78
2023-12-05T07:54:10.667Z,97418.31
2023-12-05T07:56:37.933Z,97408.91
2023-12-05T07:59:04.749Z,97414.44
2023-12-05T08:01:31.644Z,97408.94
2023-12-05T08:03:59.250Z,97401.19
2023-12-05T08:06:26.846Z,97411.38
2023-12-05T08:08:53.524Z,97403.84
2023-12-05T08:11:21.985Z,97397.91
2023-12-05T08:13:49.029Z,97404.22
2023-12-05T08:16:15.832Z,97399.13
2023-12-05T08:18:42.695Z,97420.56
2023-12-05T08:21:10.651Z,97416.25
2023-12-05T08:23:37.433Z,97399.50
2023-12-05T08:26:04.827Z,97401.97
2023-12-05T08:28:32.211Z,97395.16
2023-12-05T08:30:58.894Z,97407.41
2023-12-05T08:33:26.385Z,97404.53
2023-12-05T08:35:53.973Z,97405.50
2023-12-05T08:38:20.705Z,97412.03
2023-12-05T08:40:48.005Z,97403.41
2023-12-05T08:43:14.816Z,97406.22
2023-12-05T08:45:42.679Z,97399.25
2023-12-05T08:48:10.195Z,97398.56
2023-12-05T08:50:38.269Z,97370.75
2023-12-05T08:53:05.015Z,97388.44
2023-12-05T08:55:32.354Z,97385.53
2023-12-05T08:57:59.862Z,97387.94
2023-12-05T09:00:26.674Z,97385.47
2023-12-05T09:02:55.495Z,97389.09
2023-12-05T09:05:22.513Z,97378.25
2023-12-05T09:07:50.894Z,97380.78
2023-12-05T09:10:17.883Z,97380.31
2023-12-05T09:12:45.539Z,97374.69
2023-12-05T09:15:12.564Z,97368.88
2023-12-05T09:17:39.990Z,97351.28
2023-12-05T09:20:07.543Z,97357.44
2023-12-05T09:22:34.269Z,97346.50
2023-12-05T09:25:01.632Z,97339.69
2023-12-05T09:27:28.469Z,97348.94
2023-12-05T09:29:55.405Z,97343.34
2023-12-05T09:32:23.304Z,97352.66
2023-12-05T09:34:50.106Z,97349.47
2023-12-05T09:37:16.896Z,97335.91
2023-12-05T09:39:44.302Z,97342.09
2023-12-05T09:42:15.527Z,97342.38
2023-12-05T09:44:46.597Z,97342.53
2023-12-05T09:47:27.248Z,97334.28
2023-12-05T09:49:56.212Z,97327.00
2023-12-05T09:52:23.734Z,97332.97
2023-12-05T09:54:51.901Z,97324.03
2023-12-05T09:57:19.880Z,97311.66
2023-12-05T09:59:46.670Z,97306.78
2023-12-05T10:02:14.627Z,97302.38
2023-12-05T10:04:46.644Z,97301.00
2023-12-05T10:07:14.618Z,97303.31
2023-12-05T10:09:46.390Z,97308.56
2023-12-05T10:12:13.889Z,97301.13
2023-12-05T10:14:41.884Z,97297.75
2023-12-05T10:17:09.984Z,97293.81
2023-12-05T10:19:37.198Z,97296.03
2023-12-05T10:22:05.115Z,97287.31
2023-12-05T10:24:46.314Z,97291.03
2023-12-05T10:27:13.552Z,97294.84
2023-12-05T10:29:42.678Z,97288.34
2023-12-05T10:32:11.927Z,97293.78
2023-12-05T10:34:52.263Z,97292.84
2023-12-05T10:37:22.830Z,97294.00
2023-12-05T10:39:54.461Z,97297.03
2023-12-05T10:42:26.343Z,97292.84
2023-12-05T10:44:53.326Z,97302.47
2023-12-05T10:47:20.569Z,97304.13
2023-12-05T10:49:49.805Z,97296.09
2023-12-05T10:52:17.091Z,97296.88
2023-12-05T10:54:45.536Z,97296.16
2023-12-05T10:57:12.745Z,97291.06
2023-12-05T10:59:41.400Z,97304.06
2023-12-05T11:02:16.080Z,97293.78
2023-12-05T11:04:43.971Z,97291.91
2023-12-05T11:07:11.654Z,97289.44
2023-12-05T11:09:46.923Z,97283.19
2023-12-05T11:12:16.214Z,97268.50
2023-12-05T11:14:47.340Z,97282.47
2023-12-05T11:17:20.450Z,97273.75
2023-12-05T11:20:00.300Z,97283.59
2023-12-05T11:22:35.560Z,97283.91
2023-12-05T11:25:17.414Z,97272.94
2023-12-05T11:28:03.416Z,97271.16
2023-12-05T11:31:08.711Z,97267.75
2023-12-05T11:33:57.619Z,97268.41
2023-12-05T11:36:37.628Z,97267.44
2023-12-05T11:39:05.653Z,97252.88
2023-12-05T11:41:32.348Z,97256.72
2023-12-05T11:44:14.724Z,97248.81
2023-12-05T11:46:45.383Z,97263.25
2023-12-05T11:49:12.161Z,97251.00
2023-12-05T11:51:39.179Z,97253.13
2023-12-05T11:54:08.891Z,97241.88
2023-12-05T11:56:35.850Z,97241.88
2023-12-05T11:59:17.640Z,97238.16
2023-12-05T12:01:45.107Z,97234.84
2023-12-05T12:04:22.725Z,97240.69
2023-12-05T12:06:50.611Z,97242.31
2023-12-05T12:09:17.605Z,97237.44
2023-12-05T12:11:44.612Z,97234.75
2023-12-05T12:14:18.880Z,97242.00
2023-12-05T12:16:48.021Z,97247.13
2023-12-05T12:19:17.002Z,97256.78
2023-12-05T12:21:45.855Z,97248.66
2023-12-05T12:24:24.203Z,97246.53
2023-12-05T12:26:55.342Z,97244.94
2023-12-05T12:29:26.737Z,97252.97
2023-12-05T12:32:07.492Z,97236.06
2023-12-05T12:34:35.013Z,97235.81
2023-12-05T12:37:10.125Z,97232.41
2023-12-05T12:39:45.498Z,97230.03
2023-12-05T12:42:12.872Z,97226.38
2023-12-05T12:44:40.188Z,97230.69
2023-12-05T12:47:10.022Z,97230.50
2023-12-05T12:49:39.150Z,97223.75
2023-12-05T12:52:06.103Z,97220.75
2023-12-05T12:54:34.021Z,97234.00
2023-12-05T12:57:00.908Z,97219.72
2023-12-05T12:59:27.716Z,97224.34
2023-12-05T13:01:55.252Z,97206.00
2023-12-05T13:04:22.723Z,97224.03
2023-12-05T13:06:49.606Z,97226.22
2023-12-05T13:09:19.683Z,97228.81
2023-12-05T13:11:47.936Z,97216.41
2023-12-05T13:14:18.116Z,97222.09
2023-12-05T13:16:45.996Z,97224.19
2023-12-05T13:19:33.495Z,97211.22
2023-12-05T13:22:00.650Z,97215.75
2023-12-05T13:24:27.822Z,97228.34
2023-12-05T13:26:54.779Z,97227.47
2023-12-05T13:29:21.770Z,97241.91
2023-12-05T13:31:48.575Z,97227.94
2023-12-05T13:34:16.443Z,97217.66
2023-12-05T13:36:43.432Z,97222.34
2023-12-05T13:39:12.494Z,97220.00
2023-12-05T13:41:40.150Z,97224.56
2023-12-05T13:44:07.559Z,97230.16
2023-12-05T13:46:34.250Z,97229.25
2023-12-05T13:49:07.956Z,97234.22
2023-12-05T13:51:35.541Z,97233.09
2023-12-05T13:54:02.316Z,97238.50
2023-12-05T13:56:29.953Z,97243.53
2023-12-05T13:59:00.096Z,97245.00
2023-12-05T14:01:27.235Z,97241.19
2023-12-05T14:03:54.323Z,97226.47
2023-12-05T14:06:22.107Z,97243.00
2023-12-05T14:08:48.914Z,97249.31
2023-12-05T14:11:15.694Z,97255.63
2023-12-05T14:13:42.523Z,97266.94
2023-12-05T14:16:10.167Z,97271.88
2023-12-05T14:18:37.780Z,97264.44
2023-12-05T14:21:05.567Z,97270.03
2023-12-05T14:23:32.265Z,97255.88
2023-12-05T14:25:59.765Z,97260.56
2023-12-05T14:28:26.924Z,97257.91
2023-12-05T14:30:53.706Z,97257.66
2023-12-05T14:33:20.481Z,97266.75
2023-12-05T14:35:47.455Z,97264.44
2023-12-05T14:38:17.417Z,97261.63
2023-12-05T14:40:45.354Z,97254.88
2023-12-05T14:43:12.928Z,97259.50
2023-12-05T14:45:39.962Z,97264.13
2023-12-05T14:48:08.010Z,97259.94
2023-12-05T14:50:34.969Z,97272.47
2023-12-05T14:53:01.938Z,97278.50
2023-12-05T14:55:28.783Z,97277.56
2023-12-05T14:57:55.591Z,97271.03
2023-12-05T15:00:22.454Z,97268.84
2023-12-05T15:02:49.438Z,97283.81
2023-12-05T15:05:17.939Z,97276.47
2023-12-05T15:07:44.786Z,97276.25
2023-12-05T15:10:11.676Z,97276.25
2023-12-05T15:12:38.736Z,97284.47
2023-12-05T15:15:06.956Z,97266.72
2023-12-05T15:17:34.092Z,97266.94
2023-12-05T15:20:19.082Z,97273.44
2023-12-05T15:22:48.245Z,97273.94
2023-12-05T15:25:16.435Z,97276.59
2023-12-05T15:27:43.144Z,97274.94
2023-12-05T15:30:11.513Z,97279.25
2023-12-05T15:32:38.509Z,97264.34
2023-12-05T15:35:06.264Z,97280.44
2023-12-05T15:37:32.966Z,97269.59
2023-12-05T15:39:59.642Z,97276.59
2023-12-05T15:42:26.440Z,97279.72
2023-12-05T15:44:54.787Z,97273.31
2023-12-05T15:47:21.960Z,97272.28
2023-12-05T15:49:49.076Z,97273.56
2023-12-05T15:52:17.508Z,97266.00
2023-12-05T15:54:44.326Z,97266.94
2023-12-05T15:57:11.073Z,97264.63
2023-12-05T15:59:38.466Z,97263.81
2023-12-05T16:02:06.532Z,97275.47
2023-12-05T16:04:33.213Z,97260.78
2023-12-05T16:07:01.113Z,97267.09
2023-12-05T16:09:30.628Z,97260.47
2023-12-05T16:11:58.374Z,97260.94
2023-12-05T16:14:25.223Z,97256.63
2023-12-05T16:16:52.638Z,97260.09
2023-12-05T16:19:19.365Z,97260.34
2023-12-05T16:21:46.264Z,97260.09
2023-12-05T16:24:13.657Z,97262.56
2023-12-05T16:26:40.819Z,97252.09
2023-12-05T16:29:08.245Z,97261.06
2023-12-05T16:31:35.140Z,97261.63
2023-12-05T16:34:02.342Z,97249.13
2023-12-05T16:36:30.829Z,97250.16
2023-12-05T16:38:59.170Z,97245.63
2023-12-05T16:41:27.108Z,97244.59
2023-12-05T16:43:53.980Z,97240.28
2023-12-05T16:46:21.318Z,97237.94
2023-12-05T16:48:48.179Z,97237.94
2023-12-05T16:51:15.589Z,97248.06
2023-12-05T16:53:42.974Z,97229.56
2023-12-05T16:56:13.511Z,97252.09
2023-12-05T16:58:40.699Z,97241.91
2023-12-05T17:01:10.322Z,97249.13
2023-12-05T17:03:37.276Z,97257.69
2023-12-05T17:06:05.567Z,97242.03
2023-12-05T17:08:32.336Z,97243.31
2023-12-05T17:10:59.088Z,97242.75
2023-12-05T17:13:26.571Z,97237.06
2023-12-05T17:15:53.781Z,97247.47
2023-12-05T17:18:20.588Z,97243.19
2023-12-05T17:20:48.807Z,97240.97
2023-12-05T17:23:15.613Z,97241.34
2023-12-05T17:25:42.332Z,97236.81
2023-12-05T17:28:09.319Z,97230.91
2023-12-05T17:30:36.677Z,97232.53
2023-12-05T17:33:03.568Z,97233.56
2023-12-05T17:35:30.388Z,97235.19
2023-12-05T17:37:57.276Z,97222.19
2023-12-05T17:40:23.997Z,97233.22
2023-12-05T17:42:51.497Z,97235.88
2023-12-05T17:45:18.488Z,97240.41
2023-12-05T17:47:45.357Z,97227.16
2023-12-05T17:50:12.520Z,97236.09
2023-12-05T17:52:41.435Z,97234.72
2023-12-05T17:55:08.617Z,97242.94
2023-12-05T17:57:36.299Z,97242.34
2023-12-05T18:00:04.790Z,97238.03
2023-12-05T18:02:36.045Z,97238.19
2023-12-05T18:05:04.364Z,97238.75
2023-12-05T18:07:53.197Z,97237.94
2023-12-05T18:10:18.998Z,97229.13
2023-12-05T18:12:45.787Z,97230.19
2023-12-05T18:15:12.928Z,97234.03
2023-12-05T18:17:40.584Z,97225.31
2023-12-05T18:20:10.314Z,97238.19
2023-12-05T18:22:37.059Z,97236.56
2023-12-05T18:25:08.041Z,97242.03
2023-12-05T18:27:35.035Z,97242.03
2023-12-05T18:30:02.912Z,97232.63
2023-12-05T18:32:30.069Z,97239.34
2023-12-05T18:34:57.209Z,97239.72
2023-12-05T18:37:25.003Z,97238.31
2023-12-05T18:39:52.147Z,97238.09
2023-12-05T18:42:19.032Z,97236.69
2023-12-05T18:44:45.711Z,97212.28
2023-12-05T18:47:12.855Z,97242.03
2023-12-05T18:49:47.832Z,97245.97
2023-12-05T18:52:14.984Z,97227.69
2023-12-05T18:54:41.743Z,97241.06
2023-12-05T18:57:15.879Z,97238.41
2023-12-05T18:59:45.668Z,97234.34
2023-12-05T19:02:12.391Z,97243.53
2023-12-05T19:04:46.324Z,97235.63
2023-12-05T19:07:14.046Z,97232.34
2023-12-05T19:09:41.872Z,97231.78
2023-12-05T19:12:15.953Z,97230.53
2023-12-05T19:14:50.197Z,97236.22
2023-12-05T19:17:23.277Z,97235.16
2023-12-05T19:19:50.406Z,97228.41
2023-12-05T19:22:18.641Z,97222.38
2023-12-05T19:24:53.363Z,97217.63
2023-12-05T19:27:21.172Z,97226.19
2023-12-05T19:29:47.930Z,97226.19
2023-12-05T19:32:21.289Z,97206.25
2023-12-05T19:34:49.691Z,97219.50
2023-12-05T19:37:18.102Z,97218.44
2023-12-05T19:39:49.328Z,97204.84
2023-12-05T19:42:17.060Z,97211.84
2023-12-05T19:44:45.448Z,97205.09
2023-12-05T19:47:17.624Z,97213.00
2023-12-05T19:49:45.278Z,97209.75
2023-12-05T19:52:12.829Z,97212.19
2023-12-05T19:54:39.561Z,97181.53
2023-12-05T19:57:07.108Z,97202.91
2023-12-05T19:59:35.757Z,97197.56
2023-12-05T20:02:02.944Z,97185.38
2023-12-05T20:04:29.815Z,97189.56
2023-12-05T20:06:56.733Z,97186.78
2023-12-05T20:09:24.065Z,97184.94
2023-12-05T20:11:50.732Z,97181.81
2023-12-05T20:14:17.582Z,97182.97
2023-12-05T20:16:44.846Z,97172.06
2023-12-05T20:19:11.657Z,97174.28
2023-12-05T20:21:38.560Z,97171.16
2023-12-05T20:24:09.141Z,97166.88
2023-12-05T20:26:35.778Z,97161.97
2023-12-05T20:29:02.643Z,97176.94
2023-12-05T20:31:29.519Z,97168.72
2023-12-05T20:33:57.589Z,97173.81
2023-12-05T20:36:24.752Z,97161.16
2023-12-05T20:38:51.972Z,97163.59
2023-12-05T20:41:19.199Z,97160.81
2023-12-05T20:43:46.507Z,97164.28
2023-12-05T20:46:15.546Z,97168.94
2023-12-05T20:48:44.076Z,97171.59
2023-12-05T20:51:11.101Z,97167.31
2023-12-05T20:53:38.578Z,97160.81
2023-12-05T20:56:07.397Z,97162.44
2023-12-05T20:58:34.156Z,97163.47
2023-12-05T21:01:01.221Z,97167.78
2023-12-05T21:03:28.192Z,97164.88
2023-12-05T21:05:55.254Z,97155.94
2023-12-05T21:08:22.009Z,97157.91
2023-12-05T21:10:48.648Z,97171.50
2023-12-05T21:13:15.535Z,97160.09
2023-12-05T21:15:42.295Z,97162.78
2023-12-05T21:18:09.131Z,97160.56
2023-12-05T21:20:35.877Z,97159.63
2023-12-05T21:23:02.639Z,97156.59
2023-12-05T21:25:29.807Z,97149.50
2023-12-05T21:27:57.250Z,97140.78
2023-12-05T21:30:24.071Z,97149.97
2023-12-05T21:32:51.554Z,97142.19
2023-12-05T21:35:18.427Z,97146.25
2023-12-05T21:37:45.288Z,97140.09
2023-12-05T21:40:15.278Z,97156.25
2023-12-05T21:42:42.145Z,97144.75
2023-12-05T21:45:10.497Z,97152.28
2023-12-05T21:47:37.252Z,97149.97
2023-12-05T21:50:05.318Z,97145.47
2023-12-05T21:52:32.170Z,97145.34
2023-12-05T21:54:58.862Z,97136.03
2023-12-05T21:57:25.609Z,97140.34
2023-12-05T21:59:53.381Z,97142.41
2023-12-05T22:02:20.178Z,97129.66
2023-12-05T22:04:47.090Z,97121.31
2023-12-05T22:07:14.244Z,97125.34
2023-12-05T22:09:41.548Z,97119.97
2023-12-05T22:12:08.817Z,97131.00
2023-12-05T22:14:36.167Z,97126.81
2023-12-05T22:17:02.955Z,97126.91
2023-12-05T22:19:30.307Z,97118.63
2023-12-05T22:21:57.102Z,97115.59
2023-12-05T22:24:29.783Z,97117.34
2023-12-05T22:26:59.822Z,97125.66
2023-12-05T22:29:26.577Z,97121.19
2023-12-05T22:31:53.221Z,97123.38
2023-12-05T22:34:20.639Z,97112.44
2023-12-05T22:36:47.328Z,97101.13
2023-12-05T22:39:14.347Z,97113.31
2023-12-05T22:41:45.168Z,97124.88
2023-12-05T22:44:12.274Z,97124.13
2023-12-05T22:46:39.158Z,97116.59
2023-12-05T22:49:06.792Z,97121.31
2023-12-05T22:51:33.712Z,97111.31
2023-12-05T22:54:00.431Z,97112.00
2023-12-05T22:56:28.164Z,97103.41
2023-12-05T22:58:54.937Z,97100.38
2023-12-05T23:01:21.867Z,97106.97
2023-12-05T23:03:49.196Z,97097.41
2023-12-05T23:06:15.979Z,97094.38
2023-12-05T23:08:43.498Z,97094.97
2023-12-05T23:11:10.588Z,97087.28
2023-12-05T23:13:37.289Z,97092.19
2023-12-05T23:16:11.872Z,97091.56
2023-12-05T23:18:39.280Z,97089.34
2023-12-05T23:21:06.239Z,97083.66
2023-12-05T23:23:39.576Z,97085.13
2023-12-05T23:26:06.452Z,97081.88
2023-12-05T23:28:35.104Z,97082.53
2023-12-05T23:31:09.001Z,97067.91
2023-12-05T23:33:35.871Z,97077.72
2023-12-05T23:36:02.792Z,97061.69
2023-12-05T23:38:37.321Z,97072.09
2023-12-05T23:41:04.131Z,97072.09
2023-12-05T23:43:30.769Z,97075.41
2023-12-05T23:46:05.864Z,97077.09
2023-12-05T23:48:32.688Z,97086.91
2023-12-05T23:50:59.902Z,97086.53
2023-12-05T23:53:32.989Z,97086.16
2023-12-05T23:55:59.635Z,97090.28
2023-12-05T23:58:27.417Z,97078.50
